sensor_id;sensor_type;location;lat;lon;timestamp;P1;durP1;ratioP1;P2;durP2;ratioP2
20014;SDS011;61787;42.022;23.078;2023-06-19T00:00:34;10.80;;;7.17;;
20014;SDS011;61787;42.022;23.078;2023-06-19T00:01:35;8.73;;;6.97;;
20014;SDS011;61787;42.022;23.078;2023-06-19T00:02:37;8.90;;;7.00;;
20014;SDS011;61787;42.022;23.078;2023-06-19T00:03:39;7.70;;;6.70;;
20014;SDS011;61787;42.022;23.078;2023-06-19T00:04:40;8.13;;;6.97;;
20014;SDS011;61787;42.022;23.078;2023-06-19T00:05:42;8.93;;;6.43;;
20014;SDS011;61787;42.022;23.078;2023-06-19T00:06:44;9.83;;;6.30;;
20014;SDS011;61787;42.022;23.078;2023-06-19T00:07:45;8.93;;;6.40;;
20014;SDS011;61787;42.022;23.078;2023-06-19T00:08:47;9.80;;;6.50;;
20014;SDS011;61787;42.022;23.078;2023-06-19T00:09:48;6.90;;;6.00;;
20014;SDS011;61787;42.022;23.078;2023-06-19T00:10:50;11.17;;;6.43;;
20014;SDS011;61787;42.022;23.078;2023-06-19T00:11:52;8.13;;;6.90;;
20014;SDS011;61787;42.022;23.078;2023-06-19T00:12:53;9.83;;;7.27;;
20014;SDS011;61787;42.022;23.078;2023-06-19T00:13:55;10.70;;;6.97;;
20014;SDS011;61787;42.022;23.078;2023-06-19T00:14:57;9.13;;;7.23;;
20014;SDS011;61787;42.022;23.078;2023-06-19T00:15:58;11.20;;;6.43;;
20014;SDS011;61787;42.022;23.078;2023-06-19T00:17:01;8.77;;;6.83;;
20014;SDS011;61787;42.022;23.078;2023-06-19T00:18:03;9.60;;;7.50;;
20014;SDS011;61787;42.022;23.078;2023-06-19T00:19:05;10.77;;;7.07;;
20014;SDS011;61787;42.022;23.078;2023-06-19T00:20:07;9.80;;;6.63;;
20014;SDS011;61787;42.022;23.078;2023-06-19T00:21:10;10.27;;;6.77;;
20014;SDS011;61787;42.022;23.078;2023-06-19T00:22:12;8.10;;;7.17;;
20014;SDS011;61787;42.022;23.078;2023-06-19T00:23:14;7.63;;;6.37;;
20014;SDS011;61787;42.022;23.078;2023-06-19T00:24:18;7.53;;;6.83;;
20014;SDS011;61787;42.022;23.078;2023-06-19T00:25:19;9.90;;;6.80;;
20014;SDS011;61787;42.022;23.078;2023-06-19T00:26:21;8.27;;;6.20;;
20014;SDS011;61787;42.022;23.078;2023-06-19T00:27:26;10.57;;;7.30;;
20014;SDS011;61787;42.022;23.078;2023-06-19T00:28:28;7.60;;;6.70;;
20014;SDS011;61787;42.022;23.078;2023-06-19T00:29:31;9.60;;;6.47;;
20014;SDS011;61787;42.022;23.078;2023-06-19T00:30:33;9.67;;;6.50;;
20014;SDS011;61787;42.022;23.078;2023-06-19T00:31:35;8.07;;;6.60;;
20014;SDS011;61787;42.022;23.078;2023-06-19T00:32:38;7.50;;;6.23;;
20014;SDS011;61787;42.022;23.078;2023-06-19T00:33:48;11.30;;;6.23;;
20014;SDS011;61787;42.022;23.078;2023-06-19T00:34:49;9.40;;;6.87;;
20014;SDS011;61787;42.022;23.078;2023-06-19T00:35:51;7.17;;;6.03;;
20014;SDS011;61787;42.022;23.078;2023-06-19T00:36:53;11.93;;;6.20;;
20014;SDS011;61787;42.022;23.078;2023-06-19T00:37:57;11.10;;;6.87;;
20014;SDS011;61787;42.022;23.078;2023-06-19T00:39:01;7.20;;;6.47;;
20014;SDS011;61787;42.022;23.078;2023-06-19T00:40:04;11.00;;;6.47;;
20014;SDS011;61787;42.022;23.078;2023-06-19T00:41:09;8.37;;;6.50;;
20014;SDS011;61787;42.022;23.078;2023-06-19T00:42:11;15.57;;;6.77;;
20014;SDS011;61787;42.022;23.078;2023-06-19T00:43:12;9.23;;;6.73;;
20014;SDS011;61787;42.022;23.078;2023-06-19T00:44:14;8.77;;;6.37;;
20014;SDS011;61787;42.022;23.078;2023-06-19T00:45:16;7.23;;;6.37;;
20014;SDS011;61787;42.022;23.078;2023-06-19T00:46:17;8.03;;;6.47;;
20014;SDS011;61787;42.022;23.078;2023-06-19T00:47:19;9.27;;;6.20;;
20014;SDS011;61787;42.022;23.078;2023-06-19T00:48:21;8.87;;;6.77;;
20014;SDS011;61787;42.022;23.078;2023-06-19T00:49:23;9.60;;;6.70;;
20014;SDS011;61787;42.022;23.078;2023-06-19T00:50:27;7.77;;;6.97;;
20014;SDS011;61787;42.022;23.078;2023-06-19T00:51:31;12.87;;;7.37;;
20014;SDS011;61787;42.022;23.078;2023-06-19T00:52:33;9.80;;;6.73;;
20014;SDS011;61787;42.022;23.078;2023-06-19T00:53:35;7.33;;;6.50;;
20014;SDS011;61787;42.022;23.078;2023-06-19T00:54:36;9.37;;;6.87;;
20014;SDS011;61787;42.022;23.078;2023-06-19T00:55:38;8.53;;;7.37;;
20014;SDS011;61787;42.022;23.078;2023-06-19T00:56:40;7.20;;;6.50;;
20014;SDS011;61787;42.022;23.078;2023-06-19T00:57:42;12.13;;;6.97;;
20014;SDS011;61787;42.022;23.078;2023-06-19T00:58:44;8.70;;;7.00;;
20014;SDS011;61787;42.022;23.078;2023-06-19T00:59:46;7.23;;;6.13;;
20014;SDS011;61787;42.022;23.078;2023-06-19T01:00:48;8.30;;;6.30;;
20014;SDS011;61787;42.022;23.078;2023-06-19T01:02:07;14.37;;;7.03;;
20014;SDS011;61787;42.022;23.078;2023-06-19T01:03:10;9.00;;;6.77;;
20014;SDS011;61787;42.022;23.078;2023-06-19T01:04:12;11.13;;;6.07;;
20014;SDS011;61787;42.022;23.078;2023-06-19T01:05:14;11.13;;;6.87;;
20014;SDS011;61787;42.022;23.078;2023-06-19T01:06:20;7.57;;;6.83;;
20014;SDS011;61787;42.022;23.078;2023-06-19T01:08:53;9.43;;;6.43;;
20014;SDS011;61787;42.022;23.078;2023-06-19T01:10:04;11.03;;;7.03;;
20014;SDS011;61787;42.022;23.078;2023-06-19T01:11:09;8.93;;;6.70;;
20014;SDS011;61787;42.022;23.078;2023-06-19T01:12:28;9.47;;;7.33;;
20014;SDS011;61787;42.022;23.078;2023-06-19T01:13:46;10.30;;;7.53;;
20014;SDS011;61787;42.022;23.078;2023-06-19T01:14:58;8.10;;;6.90;;
20014;SDS011;61787;42.022;23.078;2023-06-19T01:16:02;11.03;;;7.67;;
20014;SDS011;61787;42.022;23.078;2023-06-19T01:17:05;11.03;;;7.07;;
20014;SDS011;61787;42.022;23.078;2023-06-19T01:18:07;9.57;;;7.30;;
20014;SDS011;61787;42.022;23.078;2023-06-19T01:19:15;11.17;;;7.13;;
20014;SDS011;61787;42.022;23.078;2023-06-19T01:20:20;8.47;;;6.83;;
20014;SDS011;61787;42.022;23.078;2023-06-19T01:21:22;9.57;;;6.97;;
20014;SDS011;61787;42.022;23.078;2023-06-19T01:22:30;10.83;;;6.77;;
20014;SDS011;61787;42.022;23.078;2023-06-19T01:23:32;8.63;;;6.50;;
20014;SDS011;61787;42.022;23.078;2023-06-19T01:24:34;9.87;;;6.83;;
20014;SDS011;61787;42.022;23.078;2023-06-19T01:25:36;7.37;;;6.67;;
20014;SDS011;61787;42.022;23.078;2023-06-19T01:26:38;9.23;;;6.73;;
20014;SDS011;61787;42.022;23.078;2023-06-19T01:27:41;9.23;;;6.53;;
20014;SDS011;61787;42.022;23.078;2023-06-19T01:28:46;9.73;;;6.83;;
20014;SDS011;61787;42.022;23.078;2023-06-19T01:29:48;8.77;;;6.83;;
20014;SDS011;61787;42.022;23.078;2023-06-19T01:30:50;11.77;;;6.63;;
20014;SDS011;61787;42.022;23.078;2023-06-19T01:32:18;8.77;;;6.90;;
20014;SDS011;61787;42.022;23.078;2023-06-19T01:33:28;10.10;;;6.40;;
20014;SDS011;61787;42.022;23.078;2023-06-19T01:34:32;8.83;;;6.80;;
20014;SDS011;61787;42.022;23.078;2023-06-19T01:35:36;8.00;;;6.73;;
20014;SDS011;61787;42.022;23.078;2023-06-19T01:36:39;8.33;;;6.40;;
20014;SDS011;61787;42.022;23.078;2023-06-19T01:37:41;7.77;;;7.07;;
20014;SDS011;61787;42.022;23.078;2023-06-19T01:38:44;9.93;;;7.27;;
20014;SDS011;61787;42.022;23.078;2023-06-19T01:39:49;8.57;;;7.47;;
20014;SDS011;61787;42.022;23.078;2023-06-19T01:40:51;11.33;;;7.50;;
20014;SDS011;61787;42.022;23.078;2023-06-19T01:41:55;9.20;;;6.70;;
20014;SDS011;61787;42.022;23.078;2023-06-19T01:42:59;7.47;;;6.70;;
20014;SDS011;61787;42.022;23.078;2023-06-19T01:44:02;12.90;;;7.70;;
20014;SDS011;61787;42.022;23.078;2023-06-19T01:45:04;11.90;;;7.00;;
20014;SDS011;61787;42.022;23.078;2023-06-19T01:46:07;10.37;;;6.80;;
20014;SDS011;61787;42.022;23.078;2023-06-19T01:47:09;9.03;;;6.93;;
20014;SDS011;61787;42.022;23.078;2023-06-19T01:48:13;9.27;;;7.10;;
20014;SDS011;61787;42.022;23.078;2023-06-19T01:49:15;9.93;;;7.03;;
20014;SDS011;61787;42.022;23.078;2023-06-19T01:50:18;12.23;;;7.40;;
20014;SDS011;61787;42.022;23.078;2023-06-19T01:51:19;7.67;;;6.80;;
20014;SDS011;61787;42.022;23.078;2023-06-19T01:52:21;13.00;;;7.07;;
20014;SDS011;61787;42.022;23.078;2023-06-19T01:53:23;8.57;;;7.07;;
20014;SDS011;61787;42.022;23.078;2023-06-19T01:54:24;9.83;;;7.50;;
20014;SDS011;61787;42.022;23.078;2023-06-19T01:55:26;10.37;;;7.00;;
20014;SDS011;61787;42.022;23.078;2023-06-19T01:56:28;8.80;;;6.90;;
20014;SDS011;61787;42.022;23.078;2023-06-19T01:57:30;8.67;;;6.63;;
20014;SDS011;61787;42.022;23.078;2023-06-19T01:58:32;7.80;;;6.60;;
20014;SDS011;61787;42.022;23.078;2023-06-19T01:59:33;8.03;;;6.97;;
20014;SDS011;61787;42.022;23.078;2023-06-19T02:00:35;9.83;;;7.00;;
20014;SDS011;61787;42.022;23.078;2023-06-19T02:01:37;10.60;;;6.67;;
20014;SDS011;61787;42.022;23.078;2023-06-19T02:02:38;9.67;;;6.77;;
20014;SDS011;61787;42.022;23.078;2023-06-19T02:03:40;8.73;;;6.70;;
20014;SDS011;61787;42.022;23.078;2023-06-19T02:04:42;7.77;;;6.40;;
20014;SDS011;61787;42.022;23.078;2023-06-19T02:05:44;11.53;;;6.70;;
20014;SDS011;61787;42.022;23.078;2023-06-19T02:06:45;8.77;;;6.90;;
20014;SDS011;61787;42.022;23.078;2023-06-19T02:07:47;7.10;;;6.40;;
20014;SDS011;61787;42.022;23.078;2023-06-19T02:08:49;10.13;;;6.73;;
20014;SDS011;61787;42.022;23.078;2023-06-19T02:09:50;7.27;;;6.57;;
20014;SDS011;61787;42.022;23.078;2023-06-19T02:10:52;12.10;;;6.60;;
20014;SDS011;61787;42.022;23.078;2023-06-19T02:11:53;8.57;;;5.80;;
20014;SDS011;61787;42.022;23.078;2023-06-19T02:12:55;5.80;;;5.30;;
20014;SDS011;61787;42.022;23.078;2023-06-19T02:13:57;6.73;;;5.80;;
20014;SDS011;61787;42.022;23.078;2023-06-19T02:14:58;9.40;;;6.53;;
20014;SDS011;61787;42.022;23.078;2023-06-19T02:16:00;10.57;;;6.20;;
20014;SDS011;61787;42.022;23.078;2023-06-19T02:17:01;9.87;;;6.13;;
20014;SDS011;61787;42.022;23.078;2023-06-19T02:18:03;8.87;;;6.37;;
20014;SDS011;61787;42.022;23.078;2023-06-19T02:19:06;7.50;;;6.10;;
20014;SDS011;61787;42.022;23.078;2023-06-19T02:20:08;7.10;;;6.10;;
20014;SDS011;61787;42.022;23.078;2023-06-19T02:21:12;8.07;;;6.87;;
20014;SDS011;61787;42.022;23.078;2023-06-19T02:22:14;9.60;;;7.13;;
20014;SDS011;61787;42.022;23.078;2023-06-19T02:23:15;8.97;;;6.40;;
20014;SDS011;61787;42.022;23.078;2023-06-19T02:24:17;9.13;;;6.77;;
20014;SDS011;61787;42.022;23.078;2023-06-19T02:25:19;8.93;;;6.70;;
20014;SDS011;61787;42.022;23.078;2023-06-19T02:26:21;9.70;;;7.13;;
20014;SDS011;61787;42.022;23.078;2023-06-19T02:27:22;7.93;;;6.53;;
20014;SDS011;61787;42.022;23.078;2023-06-19T02:28:24;11.87;;;7.00;;
20014;SDS011;61787;42.022;23.078;2023-06-19T02:29:25;11.57;;;6.57;;
20014;SDS011;61787;42.022;23.078;2023-06-19T02:30:27;10.90;;;7.07;;
20014;SDS011;61787;42.022;23.078;2023-06-19T02:31:29;7.20;;;6.50;;
20014;SDS011;61787;42.022;23.078;2023-06-19T02:32:30;8.23;;;6.60;;
20014;SDS011;61787;42.022;23.078;2023-06-19T02:33:32;9.23;;;7.33;;
20014;SDS011;61787;42.022;23.078;2023-06-19T02:34:34;8.17;;;6.47;;
20014;SDS011;61787;42.022;23.078;2023-06-19T02:35:36;8.63;;;6.40;;
20014;SDS011;61787;42.022;23.078;2023-06-19T02:36:37;9.90;;;6.23;;
20014;SDS011;61787;42.022;23.078;2023-06-19T02:37:39;8.47;;;6.40;;
20014;SDS011;61787;42.022;23.078;2023-06-19T02:38:40;10.90;;;6.87;;
20014;SDS011;61787;42.022;23.078;2023-06-19T02:39:43;12.43;;;6.47;;
20014;SDS011;61787;42.022;23.078;2023-06-19T02:40:44;10.17;;;6.60;;
20014;SDS011;61787;42.022;23.078;2023-06-19T02:41:46;8.17;;;6.60;;
20014;SDS011;61787;42.022;23.078;2023-06-19T02:42:48;10.20;;;6.50;;
20014;SDS011;61787;42.022;23.078;2023-06-19T02:43:49;9.77;;;6.40;;
20014;SDS011;61787;42.022;23.078;2023-06-19T02:44:51;9.57;;;6.60;;
20014;SDS011;61787;42.022;23.078;2023-06-19T02:45:52;8.90;;;6.50;;
20014;SDS011;61787;42.022;23.078;2023-06-19T02:46:54;9.13;;;7.17;;
20014;SDS011;61787;42.022;23.078;2023-06-19T02:47:56;9.30;;;7.50;;
20014;SDS011;61787;42.022;23.078;2023-06-19T02:48:58;8.87;;;6.67;;
20014;SDS011;61787;42.022;23.078;2023-06-19T02:50:00;9.93;;;6.90;;
20014;SDS011;61787;42.022;23.078;2023-06-19T02:51:03;7.50;;;5.53;;
20014;SDS011;61787;42.022;23.078;2023-06-19T02:52:05;8.73;;;6.60;;
20014;SDS011;61787;42.022;23.078;2023-06-19T02:53:07;10.27;;;6.70;;
20014;SDS011;61787;42.022;23.078;2023-06-19T02:54:09;11.87;;;6.43;;
20014;SDS011;61787;42.022;23.078;2023-06-19T02:55:11;9.97;;;7.10;;
20014;SDS011;61787;42.022;23.078;2023-06-19T02:56:12;9.23;;;6.37;;
20014;SDS011;61787;42.022;23.078;2023-06-19T02:57:14;11.13;;;6.07;;
20014;SDS011;61787;42.022;23.078;2023-06-19T02:58:15;8.00;;;6.57;;
20014;SDS011;61787;42.022;23.078;2023-06-19T02:59:17;8.80;;;5.53;;
20014;SDS011;61787;42.022;23.078;2023-06-19T03:00:19;9.87;;;6.47;;
20014;SDS011;61787;42.022;23.078;2023-06-19T03:01:21;7.43;;;6.60;;
20014;SDS011;61787;42.022;23.078;2023-06-19T03:02:23;6.23;;;5.60;;
20014;SDS011;61787;42.022;23.078;2023-06-19T03:03:24;7.50;;;6.00;;
20014;SDS011;61787;42.022;23.078;2023-06-19T03:04:26;7.63;;;6.17;;
20014;SDS011;61787;42.022;23.078;2023-06-19T03:05:29;11.87;;;6.33;;
20014;SDS011;61787;42.022;23.078;2023-06-19T03:06:31;7.47;;;6.27;;
20014;SDS011;61787;42.022;23.078;2023-06-19T03:07:34;7.63;;;6.50;;
20014;SDS011;61787;42.022;23.078;2023-06-19T03:08:36;7.83;;;6.13;;
20014;SDS011;61787;42.022;23.078;2023-06-19T03:09:38;9.83;;;6.43;;
20014;SDS011;61787;42.022;23.078;2023-06-19T03:10:40;9.77;;;6.40;;
20014;SDS011;61787;42.022;23.078;2023-06-19T03:11:42;9.27;;;6.33;;
20014;SDS011;61787;42.022;23.078;2023-06-19T03:12:43;11.87;;;6.77;;
20014;SDS011;61787;42.022;23.078;2023-06-19T03:13:49;17.67;;;7.20;;
20014;SDS011;61787;42.022;23.078;2023-06-19T03:14:52;9.00;;;6.33;;
20014;SDS011;61787;42.022;23.078;2023-06-19T03:15:53;9.10;;;6.17;;
20014;SDS011;61787;42.022;23.078;2023-06-19T03:16:55;7.50;;;6.30;;
20014;SDS011;61787;42.022;23.078;2023-06-19T03:17:57;7.07;;;6.37;;
20014;SDS011;61787;42.022;23.078;2023-06-19T03:18:59;11.57;;;6.90;;
20014;SDS011;61787;42.022;23.078;2023-06-19T03:20:00;9.00;;;6.70;;
20014;SDS011;61787;42.022;23.078;2023-06-19T03:21:02;12.37;;;7.23;;
20014;SDS011;61787;42.022;23.078;2023-06-19T03:22:04;9.03;;;7.20;;
20014;SDS011;61787;42.022;23.078;2023-06-19T03:23:06;7.80;;;6.83;;
20014;SDS011;61787;42.022;23.078;2023-06-19T03:24:07;10.17;;;6.97;;
20014;SDS011;61787;42.022;23.078;2023-06-19T03:25:09;9.80;;;7.03;;
20014;SDS011;61787;42.022;23.078;2023-06-19T03:26:10;11.47;;;7.20;;
20014;SDS011;61787;42.022;23.078;2023-06-19T03:27:12;9.53;;;7.03;;
20014;SDS011;61787;42.022;23.078;2023-06-19T03:28:14;9.03;;;6.87;;
20014;SDS011;61787;42.022;23.078;2023-06-19T03:29:15;8.43;;;6.57;;
20014;SDS011;61787;42.022;23.078;2023-06-19T03:30:17;8.00;;;6.57;;
20014;SDS011;61787;42.022;23.078;2023-06-19T03:31:20;10.20;;;6.77;;
20014;SDS011;61787;42.022;23.078;2023-06-19T03:32:21;7.77;;;6.10;;
20014;SDS011;61787;42.022;23.078;2023-06-19T03:33:23;8.73;;;6.63;;
20014;SDS011;61787;42.022;23.078;2023-06-19T03:34:25;11.33;;;6.60;;
20014;SDS011;61787;42.022;23.078;2023-06-19T03:35:26;9.20;;;6.73;;
20014;SDS011;61787;42.022;23.078;2023-06-19T03:36:28;11.77;;;7.07;;
20014;SDS011;61787;42.022;23.078;2023-06-19T03:37:29;13.13;;;7.20;;
20014;SDS011;61787;42.022;23.078;2023-06-19T03:38:33;10.27;;;7.23;;
20014;SDS011;61787;42.022;23.078;2023-06-19T03:39:36;12.33;;;6.50;;
20014;SDS011;61787;42.022;23.078;2023-06-19T03:40:37;9.27;;;6.90;;
20014;SDS011;61787;42.022;23.078;2023-06-19T03:41:39;11.70;;;6.57;;
20014;SDS011;61787;42.022;23.078;2023-06-19T03:42:41;10.07;;;7.10;;
20014;SDS011;61787;42.022;23.078;2023-06-19T03:43:42;6.73;;;6.03;;
20014;SDS011;61787;42.022;23.078;2023-06-19T03:44:44;9.80;;;6.43;;
20014;SDS011;61787;42.022;23.078;2023-06-19T03:45:46;8.30;;;6.60;;
20014;SDS011;61787;42.022;23.078;2023-06-19T03:46:47;7.43;;;6.33;;
20014;SDS011;61787;42.022;23.078;2023-06-19T03:47:49;9.40;;;6.27;;
20014;SDS011;61787;42.022;23.078;2023-06-19T03:48:51;10.90;;;7.10;;
20014;SDS011;61787;42.022;23.078;2023-06-19T03:49:52;9.17;;;6.37;;
20014;SDS011;61787;42.022;23.078;2023-06-19T03:50:56;8.77;;;6.77;;
20014;SDS011;61787;42.022;23.078;2023-06-19T03:51:57;8.23;;;5.93;;
20014;SDS011;61787;42.022;23.078;2023-06-19T03:52:59;9.40;;;6.70;;
20014;SDS011;61787;42.022;23.078;2023-06-19T03:54:01;10.67;;;6.37;;
20014;SDS011;61787;42.022;23.078;2023-06-19T03:55:03;7.20;;;6.17;;
20014;SDS011;61787;42.022;23.078;2023-06-19T03:56:05;10.07;;;6.60;;
20014;SDS011;61787;42.022;23.078;2023-06-19T03:57:06;8.57;;;6.63;;
20014;SDS011;61787;42.022;23.078;2023-06-19T03:58:09;9.47;;;7.57;;
20014;SDS011;61787;42.022;23.078;2023-06-19T03:59:11;8.33;;;7.40;;
20014;SDS011;61787;42.022;23.078;2023-06-19T04:00:13;12.73;;;7.27;;
20014;SDS011;61787;42.022;23.078;2023-06-19T04:01:16;12.07;;;7.53;;
20014;SDS011;61787;42.022;23.078;2023-06-19T04:02:17;9.80;;;7.20;;
20014;SDS011;61787;42.022;23.078;2023-06-19T04:03:19;12.23;;;7.00;;
20014;SDS011;61787;42.022;23.078;2023-06-19T04:04:23;9.40;;;6.07;;
20014;SDS011;61787;42.022;23.078;2023-06-19T04:05:25;11.20;;;6.70;;
20014;SDS011;61787;42.022;23.078;2023-06-19T04:06:27;9.33;;;6.63;;
20014;SDS011;61787;42.022;23.078;2023-06-19T04:07:29;8.20;;;6.70;;
20014;SDS011;61787;42.022;23.078;2023-06-19T04:08:33;6.97;;;6.25;;
20014;SDS011;61787;42.022;23.078;2023-06-19T04:09:34;9.27;;;6.80;;
20014;SDS011;61787;42.022;23.078;2023-06-19T04:10:36;9.00;;;6.28;;
20014;SDS011;61787;42.022;23.078;2023-06-19T04:11:38;9.05;;;6.50;;
20014;SDS011;61787;42.022;23.078;2023-06-19T04:12:39;8.60;;;6.80;;
20014;SDS011;61787;42.022;23.078;2023-06-19T04:13:41;10.27;;;6.45;;
20014;SDS011;61787;42.022;23.078;2023-06-19T04:14:43;9.00;;;6.47;;
20014;SDS011;61787;42.022;23.078;2023-06-19T04:15:45;10.15;;;6.72;;
20014;SDS011;61787;42.022;23.078;2023-06-19T04:16:51;9.10;;;6.82;;
20014;SDS011;61787;42.022;23.078;2023-06-19T04:17:52;7.10;;;6.40;;
20014;SDS011;61787;42.022;23.078;2023-06-19T04:18:54;6.50;;;5.60;;
20014;SDS011;61787;42.022;23.078;2023-06-19T04:19:56;7.07;;;6.38;;
20014;SDS011;61787;42.022;23.078;2023-06-19T04:20:57;10.05;;;5.40;;
20014;SDS011;61787;42.022;23.078;2023-06-19T04:21:59;8.00;;;5.50;;
20014;SDS011;61787;42.022;23.078;2023-06-19T04:23:00;7.88;;;5.70;;
20014;SDS011;61787;42.022;23.078;2023-06-19T04:24:02;13.85;;;6.13;;
20014;SDS011;61787;42.022;23.078;2023-06-19T04:25:06;9.63;;;6.18;;
20014;SDS011;61787;42.022;23.078;2023-06-19T04:26:09;8.93;;;6.00;;
20014;SDS011;61787;42.022;23.078;2023-06-19T04:27:11;8.80;;;5.97;;
20014;SDS011;61787;42.022;23.078;2023-06-19T04:28:13;9.13;;;6.40;;
20014;SDS011;61787;42.022;23.078;2023-06-19T04:29:14;6.63;;;5.93;;
20014;SDS011;61787;42.022;23.078;2023-06-19T04:30:18;8.23;;;6.20;;
20014;SDS011;61787;42.022;23.078;2023-06-19T04:31:22;7.82;;;5.15;;
20014;SDS011;61787;42.022;23.078;2023-06-19T04:32:24;8.30;;;5.95;;
20014;SDS011;61787;42.022;23.078;2023-06-19T04:33:29;6.95;;;5.20;;
20014;SDS011;61787;42.022;23.078;2023-06-19T04:34:31;7.03;;;5.63;;
20014;SDS011;61787;42.022;23.078;2023-06-19T04:35:36;7.78;;;5.50;;
20014;SDS011;61787;42.022;23.078;2023-06-19T04:36:43;8.15;;;5.50;;
20014;SDS011;61787;42.022;23.078;2023-06-19T04:37:45;10.25;;;5.95;;
20014;SDS011;61787;42.022;23.078;2023-06-19T04:38:50;9.70;;;5.80;;
20014;SDS011;61787;42.022;23.078;2023-06-19T04:39:54;5.80;;;5.15;;
20014;SDS011;61787;42.022;23.078;2023-06-19T04:40:57;7.70;;;5.78;;
20014;SDS011;61787;42.022;23.078;2023-06-19T04:41:59;8.35;;;6.05;;
20014;SDS011;61787;42.022;23.078;2023-06-19T04:43:01;7.82;;;5.72;;
20014;SDS011;61787;42.022;23.078;2023-06-19T04:44:04;9.10;;;5.28;;
20014;SDS011;61787;42.022;23.078;2023-06-19T04:45:06;9.68;;;6.10;;
20014;SDS011;61787;42.022;23.078;2023-06-19T04:46:08;12.13;;;7.55;;
20014;SDS011;61787;42.022;23.078;2023-06-19T04:47:10;8.40;;;6.50;;
20014;SDS011;61787;42.022;23.078;2023-06-19T04:48:11;11.07;;;7.15;;
20014;SDS011;61787;42.022;23.078;2023-06-19T04:49:13;13.00;;;7.40;;
20014;SDS011;61787;42.022;23.078;2023-06-19T04:50:15;13.05;;;7.20;;
20014;SDS011;61787;42.022;23.078;2023-06-19T04:51:17;10.93;;;7.03;;
20014;SDS011;61787;42.022;23.078;2023-06-19T04:52:22;12.48;;;6.90;;
20014;SDS011;61787;42.022;23.078;2023-06-19T04:53:24;17.40;;;8.15;;
20014;SDS011;61787;42.022;23.078;2023-06-19T04:54:26;8.82;;;7.20;;
20014;SDS011;61787;42.022;23.078;2023-06-19T04:55:28;9.73;;;6.97;;
20014;SDS011;61787;42.022;23.078;2023-06-19T04:56:29;8.73;;;7.10;;
20014;SDS011;61787;42.022;23.078;2023-06-19T04:57:31;8.88;;;6.90;;
20014;SDS011;61787;42.022;23.078;2023-06-19T04:58:33;13.13;;;7.68;;
20014;SDS011;61787;42.022;23.078;2023-06-19T04:59:34;15.35;;;7.78;;
20014;SDS011;61787;42.022;23.078;2023-06-19T05:00:36;11.43;;;7.85;;
20014;SDS011;61787;42.022;23.078;2023-06-19T05:01:38;10.73;;;8.68;;
20014;SDS011;61787;42.022;23.078;2023-06-19T05:02:41;13.95;;;8.55;;
20014;SDS011;61787;42.022;23.078;2023-06-19T05:03:45;14.48;;;8.15;;
20014;SDS011;61787;42.022;23.078;2023-06-19T05:04:47;13.25;;;8.40;;
20014;SDS011;61787;42.022;23.078;2023-06-19T05:05:49;13.85;;;8.57;;
20014;SDS011;61787;42.022;23.078;2023-06-19T05:06:50;12.48;;;8.25;;
20014;SDS011;61787;42.022;23.078;2023-06-19T05:07:53;11.05;;;8.13;;
20014;SDS011;61787;42.022;23.078;2023-06-19T05:08:54;10.20;;;7.35;;
20014;SDS011;61787;42.022;23.078;2023-06-19T05:09:56;12.48;;;7.93;;
20014;SDS011;61787;42.022;23.078;2023-06-19T05:10:58;12.25;;;7.80;;
20014;SDS011;61787;42.022;23.078;2023-06-19T05:11:59;11.57;;;7.93;;
20014;SDS011;61787;42.022;23.078;2023-06-19T05:13:01;10.38;;;8.32;;
20014;SDS011;61787;42.022;23.078;2023-06-19T05:14:03;10.68;;;7.90;;
20014;SDS011;61787;42.022;23.078;2023-06-19T05:15:05;12.77;;;8.27;;
20014;SDS011;61787;42.022;23.078;2023-06-19T05:16:07;12.23;;;8.05;;
20014;SDS011;61787;42.022;23.078;2023-06-19T05:17:09;13.52;;;8.32;;
20014;SDS011;61787;42.022;23.078;2023-06-19T05:18:10;11.57;;;8.32;;
20014;SDS011;61787;42.022;23.078;2023-06-19T05:19:12;9.82;;;7.90;;
20014;SDS011;61787;42.022;23.078;2023-06-19T05:20:14;10.55;;;7.75;;
20014;SDS011;61787;42.022;23.078;2023-06-19T05:21:16;12.48;;;7.80;;
20014;SDS011;61787;42.022;23.078;2023-06-19T05:22:18;10.00;;;8.00;;
20014;SDS011;61787;42.022;23.078;2023-06-19T05:23:20;10.18;;;7.38;;
20014;SDS011;61787;42.022;23.078;2023-06-19T05:24:21;11.73;;;7.95;;
20014;SDS011;61787;42.022;23.078;2023-06-19T05:25:23;10.65;;;7.75;;
20014;SDS011;61787;42.022;23.078;2023-06-19T05:26:25;11.52;;;7.88;;
20014;SDS011;61787;42.022;23.078;2023-06-19T05:27:27;12.30;;;7.45;;
20014;SDS011;61787;42.022;23.078;2023-06-19T05:28:29;10.80;;;7.50;;
20014;SDS011;61787;42.022;23.078;2023-06-19T05:29:31;10.15;;;7.70;;
20014;SDS011;61787;42.022;23.078;2023-06-19T05:30:33;13.45;;;8.25;;
20014;SDS011;61787;42.022;23.078;2023-06-19T05:31:36;11.43;;;7.57;;
20014;SDS011;61787;42.022;23.078;2023-06-19T05:32:37;15.30;;;8.50;;
20014;SDS011;61787;42.022;23.078;2023-06-19T05:33:42;13.80;;;8.30;;
20014;SDS011;61787;42.022;23.078;2023-06-19T05:34:44;15.75;;;8.88;;
20014;SDS011;61787;42.022;23.078;2023-06-19T05:35:46;11.23;;;7.90;;
20014;SDS011;61787;42.022;23.078;2023-06-19T05:36:56;15.85;;;9.10;;
20014;SDS011;61787;42.022;23.078;2023-06-19T05:37:58;15.52;;;8.32;;
20014;SDS011;61787;42.022;23.078;2023-06-19T05:39:00;17.65;;;8.68;;
20014;SDS011;61787;42.022;23.078;2023-06-19T05:40:02;12.25;;;8.73;;
20014;SDS011;61787;42.022;23.078;2023-06-19T05:41:05;11.38;;;8.55;;
20014;SDS011;61787;42.022;23.078;2023-06-19T05:42:08;13.55;;;8.50;;
20014;SDS011;61787;42.022;23.078;2023-06-19T05:43:09;13.70;;;8.18;;
20014;SDS011;61787;42.022;23.078;2023-06-19T05:44:11;12.10;;;8.60;;
20014;SDS011;61787;42.022;23.078;2023-06-19T05:45:18;15.25;;;9.35;;
20014;SDS011;61787;42.022;23.078;2023-06-19T05:46:19;10.73;;;9.23;;
20014;SDS011;61787;42.022;23.078;2023-06-19T05:47:21;13.07;;;8.85;;
20014;SDS011;61787;42.022;23.078;2023-06-19T05:48:27;13.88;;;9.30;;
20014;SDS011;61787;42.022;23.078;2023-06-19T05:49:28;12.30;;;9.07;;
20014;SDS011;61787;42.022;23.078;2023-06-19T05:50:30;10.95;;;8.48;;
20014;SDS011;61787;42.022;23.078;2023-06-19T05:51:33;8.73;;;7.78;;
20014;SDS011;61787;42.022;23.078;2023-06-19T05:52:34;15.57;;;8.50;;
20014;SDS011;61787;42.022;23.078;2023-06-19T05:53:36;14.93;;;9.23;;
20014;SDS011;61787;42.022;23.078;2023-06-19T05:54:40;13.05;;;8.20;;
20014;SDS011;61787;42.022;23.078;2023-06-19T05:55:42;10.07;;;8.35;;
20014;SDS011;61787;42.022;23.078;2023-06-19T05:56:44;10.20;;;8.75;;
20014;SDS011;61787;42.022;23.078;2023-06-19T05:57:45;11.45;;;8.82;;
20014;SDS011;61787;42.022;23.078;2023-06-19T05:58:47;14.45;;;8.65;;
20014;SDS011;61787;42.022;23.078;2023-06-19T05:59:49;11.00;;;8.40;;
20014;SDS011;61787;42.022;23.078;2023-06-19T06:00:54;12.88;;;7.68;;
20014;SDS011;61787;42.022;23.078;2023-06-19T06:01:59;10.63;;;8.30;;
20014;SDS011;61787;42.022;23.078;2023-06-19T06:03:01;15.20;;;7.82;;
20014;SDS011;61787;42.022;23.078;2023-06-19T06:04:03;16.05;;;8.50;;
20014;SDS011;61787;42.022;23.078;2023-06-19T06:05:06;11.90;;;7.78;;
20014;SDS011;61787;42.022;23.078;2023-06-19T06:06:10;9.85;;;8.02;;
20014;SDS011;61787;42.022;23.078;2023-06-19T06:07:11;9.63;;;8.20;;
20014;SDS011;61787;42.022;23.078;2023-06-19T06:08:13;10.75;;;7.43;;
20014;SDS011;61787;42.022;23.078;2023-06-19T06:09:15;10.57;;;7.95;;
20014;SDS011;61787;42.022;23.078;2023-06-19T06:10:19;10.88;;;7.57;;